Time;durP1;ratioP1;P1;durP2;ratioP2;P2;SDS_P1;SDS_P2;PMS_P1;PMS_P2;Temp;Humidity;BMP_temperature;BMP_pressure;BME280_temperature;BME280_humidity;BME280_pressure;Samples;Min_cycle;Max_cycle;Signal;HPM_P1;HPM_P2
2022/12/08 00:01:52;;;;;;;2.25;0.47;;;3.30;99.90;;;;;;4235012;28;20515;-85
2022/12/08 00:03:55;;;;;;;1.77;0.22;;;2.90;99.90;;;;;;4237049;28;20511;-84
2022/12/08 00:10:46;;;;;;;8.10;1.17;;;2.40;99.90;;;;;;4237136;28;20419;-85
2022/12/08 00:12:47;;;;;;;2.67;0.43;;;2.40;99.90;;;;;;4218229;28;20052;-84
2022/12/08 00:14:49;;;;;;;1.10;0.38;;;2.30;99.90;;;;;;4234649;28;20484;-84
2022/12/08 00:16:50;;;;;;;1.58;0.30;;;2.30;99.90;;;;;;4218894;28;20099;-84
2022/12/08 00:18:50;;;;;;;1.40;0.60;;;1.80;99.90;;;;;;4219512;28;20048;-84
2022/12/08 00:20:56;;;;;;;2.42;0.30;;;2.30;99.90;;;;;;4238898;28;20044;-84
2022/12/08 00:22:56;;;;;;;1.70;0.75;;;2.80;99.90;;;;;;4239190;28;20088;-84
2022/12/08 00:24:57;;;;;;;2.60;0.25;;;2.40;99.90;;;;;;4226420;28;20048;-84
2022/12/08 00:26:59;;;;;;;6.25;1.45;;;3.30;99.90;;;;;;4205044;28;20146;-85
2022/12/08 00:29:00;;;;;;;3.22;0.47;;;2.40;99.90;;;;;;4204937;28;20053;-84
2022/12/08 00:31:11;;;;;;;3.17;0.50;;;2.40;99.90;;;;;;4223094;28;20071;-84
2022/12/08 00:33:12;;;;;;;4.40;0.52;;;2.40;99.90;;;;;;4208291;28;20099;-84
2022/12/08 00:35:13;;;;;;;2.67;0.38;;;3.60;99.90;;;;;;4204038;28;20052;-84
2022/12/08 00:37:14;;;;;;;2.15;0.30;;;2.50;99.90;;;;;;4204190;28;20055;-84
2022/12/08 00:39:16;;;;;;;4.97;1.23;;;2.50;99.90;;;;;;4223086;28;20040;-84
2022/12/08 00:42:10;;;;;;;3.60;0.45;;;2.60;99.90;;;;;;4204431;28;20053;-84
2022/12/08 00:43:41;;;;;;;0.60;0.20;;;2.50;99.90;;;;;;4223688;28;22805;-84
2022/12/08 00:45:44;;;;;;;4.30;0.30;;;2.60;99.90;;;;;;4223640;28;20109;-83
2022/12/08 00:47:44;;;;;;;0.43;0.35;;;2.60;99.90;;;;;;4203346;28;20131;-84
2022/12/08 00:49:45;;;;;;;2.03;0.17;;;3.10;99.90;;;;;;4226101;28;20465;-84
2022/12/08 00:51:48;;;;;;;6.30;0.40;;;2.80;99.90;;;;;;4220145;28;20126;-84
2022/12/08 00:53:49;;;;;;;2.38;0.20;;;2.60;99.90;;;;;;4237992;28;20069;-85
2022/12/08 00:55:49;;;;;;;2.50;0.52;;;2.60;99.90;;;;;;4219914;28;20047;-85
2022/12/08 00:57:56;;;;;;;1.55;0.43;;;2.60;99.90;;;;;;4236180;28;20048;-84
2022/12/08 01:00:03;;;;;;;3.58;0.63;;;4.20;99.90;;;;;;4237987;28;20043;-84
2022/12/08 01:02:07;;;;;;;2.92;0.60;;;2.60;99.90;;;;;;4219503;28;20128;-85
2022/12/08 01:04:19;;;;;;;0.90;0.32;;;2.70;99.90;;;;;;4220279;28;20044;-85
2022/12/08 01:06:19;;;;;;;3.50;0.40;;;2.80;99.90;;;;;;4230692;28;20040;-84
2022/12/08 01:08:20;;;;;;;3.50;0.40;;;2.60;99.90;;;;;;4203716;28;20099;-84
2022/12/08 01:10:22;;;;;;;2.35;0.50;;;3.10;99.90;;;;;;4205210;28;20102;-84
2022/12/08 01:12:23;;;;;;;5.07;0.60;;;2.60;99.90;;;;;;4229013;28;20056;-84
2022/12/08 01:14:26;;;;;;;2.40;0.63;;;2.70;99.90;;;;;;4229133;28;20048;-84
2022/12/08 01:16:31;;;;;;;1.77;0.30;;;2.60;99.90;;;;;;4227977;28;20036;-84
2022/12/08 01:18:34;;;;;;;3.03;0.77;;;2.60;99.90;;;;;;4212863;28;20048;-84
2022/12/08 01:20:36;;;;;;;5.10;0.65;;;2.60;99.90;;;;;;4211720;28;20086;-84
2022/12/08 01:22:36;;;;;;;1.95;0.38;;;2.50;99.90;;;;;;4228489;28;20040;-84
2022/12/08 01:24:43;;;;;;;0.90;0.32;;;2.50;99.90;;;;;;4212045;28;20075;-84
2022/12/08 01:26:46;;;;;;;2.20;0.28;;;2.70;99.90;;;;;;4213195;28;20171;-85
2022/12/08 01:28:47;;;;;;;1.40;0.40;;;2.80;99.90;;;;;;4230495;28;20486;-84
2022/12/08 01:30:53;;;;;;;1.80;0.20;;;2.50;99.90;;;;;;4228024;28;20059;-84
2022/12/08 01:32:54;;;;;;;4.05;0.30;;;3.10;99.90;;;;;;4229109;28;20040;-84
2022/12/08 01:34:57;;;;;;;0.30;0.20;;;2.60;99.90;;;;;;4230073;28;20036;-84
2022/12/08 01:37:05;;;;;;;2.30;0.30;;;2.90;99.90;;;;;;4229669;28;20048;-82
2022/12/08 01:39:14;;;;;;;2.45;0.38;;;2.60;99.90;;;;;;4210196;28;20048;-83
2022/12/08 01:41:16;;;;;;;1.90;0.40;;;2.80;99.90;;;;;;4222911;28;20047;-84
2022/12/08 01:43:20;;;;;;;3.10;0.30;;;3.00;99.90;;;;;;4205430;28;20048;-84
2022/12/08 01:45:25;;;;;;;2.30;1.17;;;3.70;99.90;;;;;;4203926;28;20040;-84
2022/12/08 01:47:35;;;;;;;2.08;0.35;;;2.90;99.90;;;;;;4202748;28;20080;-84
2022/12/08 01:49:36;;;;;;;3.10;0.40;;;2.80;99.90;;;;;;4220236;28;20051;-84
2022/12/08 01:52:08;;;;;;;0.80;0.30;;;2.60;99.90;;;;;;4221397;28;20055;-84
2022/12/08 01:54:12;;;;;;;2.47;0.28;;;2.60;99.90;;;;;;4205005;28;20071;-84
2022/12/08 01:56:48;;;;;;;3.65;0.30;;;2.70;99.90;;;;;;4219635;28;20560;-84
2022/12/08 01:58:51;;;;;;;1.80;0.50;;;2.60;99.90;;;;;;4220796;28;20177;-85
2022/12/08 02:00:52;;;;;;;2.92;0.45;;;2.60;99.90;;;;;;4211570;28;20052;-84
2022/12/08 02:03:15;;;;;;;3.83;0.20;;;2.60;99.90;;;;;;4217512;28;20055;-84
2022/12/08 02:05:21;;;;;;;0.75;0.20;;;2.60;99.90;;;;;;4234968;28;20055;-85
2022/12/08 02:07:23;;;;;;;1.88;0.75;;;2.70;99.90;;;;;;4218286;28;20044;-84
2022/12/08 02:09:24;;;;;;;1.58;0.20;;;2.60;99.90;;;;;;4234867;28;20044;-84
2022/12/08 02:11:25;;;;;;;0.20;0.10;;;2.60;99.90;;;;;;4235452;28;20181;-83
2022/12/08 02:13:27;;;;;;;0.65;0.10;;;2.60;99.90;;;;;;4235459;28;20088;-84
2022/12/08 02:16:10;;;;;;;0.43;0.13;;;2.60;99.90;;;;;;4217993;28;20126;-83
2022/12/08 02:18:38;;;;;;;2.63;0.15;;;2.60;99.90;;;;;;4204295;28;20446;-84
2022/12/08 02:21:17;;;;;;;0.98;0.00;;;2.60;99.90;;;;;;4218972;28;20055;-84
2022/12/08 02:23:27;;;;;;;0.77;0.10;;;2.50;99.90;;;;;;4217434;28;20063;-84
2022/12/08 02:26:04;;;;;;;1.92;0.38;;;2.50;99.90;;;;;;4201580;28;20097;-84
2022/12/08 02:28:26;;;;;;;0.00;0.00;;;2.50;99.90;;;;;;4200994;28;20044;-84
2022/12/08 02:30:42;;;;;;;0.03;0.00;;;2.50;99.90;;;;;;4217840;28;20143;-84
2022/12/08 02:33:05;;;;;;;1.63;0.10;;;2.40;99.90;;;;;;4218353;28;20079;-84
2022/12/08 02:35:06;;;;;;;1.60;0.30;;;2.40;99.90;;;;;;4232691;28;20088;-84
2022/12/08 02:37:28;;;;;;;0.08;0.00;;;3.00;99.90;;;;;;4236456;28;20515;-84
2022/12/08 02:39:40;;;;;;;1.48;0.20;;;2.40;99.90;;;;;;4218874;28;20052;-83
2022/12/08 02:41:51;;;;;;;4.55;0.10;;;2.30;99.90;;;;;;4235712;27;20129;-83
2022/12/08 02:44:00;;;;;;;1.15;0.10;;;2.30;99.90;;;;;;4218706;28;20056;-84
2022/12/08 02:46:07;;;;;;;1.17;0.15;;;2.30;99.90;;;;;;4237882;28;20397;-84
2022/12/08 02:48:09;;;;;;;0.30;0.10;;;2.30;99.90;;;;;;4218509;28;20044;-84
2022/12/08 02:50:11;;;;;;;2.50;0.30;;;2.30;99.90;;;;;;4235595;28;20154;-84
2022/12/08 02:52:12;;;;;;;0.28;0.08;;;3.00;99.90;;;;;;4223733;28;20546;-83
2022/12/08 02:54:14;;;;;;;1.50;0.03;;;2.20;99.90;;;;;;4218887;28;20040;-84
2022/12/08 02:56:17;;;;;;;0.73;0.30;;;3.00;99.90;;;;;;4219414;28;20051;-84
2022/12/08 02:58:21;;;;;;;0.30;0.20;;;2.20;99.90;;;;;;4201600;28;20562;-83
2022/12/08 03:00:26;;;;;;;0.77;0.10;;;2.20;99.90;;;;;;4201330;28;20048;-84
2022/12/08 03:02:38;;;;;;;0.25;0.10;;;2.20;99.90;;;;;;4218948;28;20089;-83
2022/12/08 03:05:10;;;;;;;1.38;0.10;;;2.20;99.90;;;;;;4218183;28;20048;-83
2022/12/08 03:07:40;;;;;;;0.28;0.08;;;2.20;99.90;;;;;;4200985;28;20474;-83
2022/12/08 03:10:09;;;;;;;2.50;0.10;;;2.20;99.90;;;;;;4209220;28;20052;-84
2022/12/08 03:12:48;;;;;;;0.90;0.10;;;2.20;99.90;;;;;;4216894;28;20052;-83
2022/12/08 03:14:52;;;;;;;0.30;0.30;;;2.20;99.90;;;;;;4195336;28;20052;-83
2022/12/08 03:16:57;;;;;;;0.57;0.30;;;2.20;99.90;;;;;;4199358;28;20057;-84
2022/12/08 03:19:19;;;;;;;2.10;0.30;;;2.20;99.90;;;;;;4217693;28;20036;-83
2022/12/08 03:21:21;;;;;;;0.43;0.13;;;2.20;99.90;;;;;;4200173;28;20044;-84
2022/12/08 03:23:24;;;;;;;0.38;0.25;;;3.10;99.90;;;;;;4217206;28;20083;-84
2022/12/08 03:25:30;;;;;;;0.63;0.30;;;2.20;99.90;;;;;;4231828;28;20416;-84
2022/12/08 03:27:32;;;;;;;0.50;0.25;;;2.20;99.90;;;;;;4234472;28;20126;-85
2022/12/08 03:29:33;;;;;;;0.65;0.13;;;2.20;99.90;;;;;;4235462;28;20489;-85
2022/12/08 03:31:39;;;;;;;1.98;0.40;;;2.20;99.90;;;;;;4232506;28;20051;-84
2022/12/08 03:33:44;;;;;;;1.20;0.20;;;2.70;99.90;;;;;;4215311;28;20524;-85
2022/12/08 03:35:46;;;;;;;0.00;0.00;;;2.20;99.90;;;;;;4232102;28;20529;-85
2022/12/08 03:37:46;;;;;;;1.05;0.30;;;2.10;99.90;;;;;;4233126;28;20503;-85
2022/12/08 03:39:49;;;;;;;0.22;0.20;;;2.10;99.90;;;;;;4225278;28;20072;-85
2022/12/08 03:41:50;;;;;;;0.47;0.22;;;2.10;99.90;;;;;;4198550;28;20515;-84
2022/12/08 03:43:53;;;;;;;1.20;0.10;;;2.10;99.90;;;;;;4199564;28;20053;-84
2022/12/08 03:45:54;;;;;;;0.77;0.17;;;2.30;99.90;;;;;;4217846;28;20044;-84
2022/12/08 03:47:55;;;;;;;0.52;0.17;;;2.10;99.90;;;;;;4217897;28;20040;-84
2022/12/08 03:49:56;;;;;;;0.25;0.10;;;2.10;99.90;;;;;;4215902;28;20466;-84
2022/12/08 03:51:58;;;;;;;2.15;0.38;;;2.10;99.90;;;;;;4217153;28;20170;-84
2022/12/08 03:53:59;;;;;;;1.73;0.10;;;2.10;99.90;;;;;;4217622;28;20125;-84
2022/12/08 03:56:04;;;;;;;0.57;0.20;;;2.10;99.90;;;;;;4202580;28;20102;-84
2022/12/08 03:58:06;;;;;;;0.05;0.00;;;2.80;99.90;;;;;;4219563;28;20481;-83
2022/12/08 04:00:12;;;;;;;4.25;0.85;;;2.70;99.90;;;;;;4223446;28;20192;-84
2022/12/08 04:02:12;;;;;;;1.70;0.20;;;2.20;99.90;;;;;;4203756;28;20800;-84
2022/12/08 04:04:14;;;;;;;0.20;0.20;;;2.30;99.90;;;;;;4219346;28;20044;-84
2022/12/08 04:06:15;;;;;;;2.53;0.40;;;2.70;99.90;;;;;;4219620;28;20056;-84
2022/12/08 04:08:16;;;;;;;2.15;0.50;;;2.20;99.90;;;;;;4201880;28;20428;-84
2022/12/08 04:10:17;;;;;;;2.13;0.30;;;2.20;99.90;;;;;;4219586;28;20044;-84
2022/12/08 04:12:18;;;;;;;0.73;0.40;;;2.20;99.90;;;;;;4218571;28;20063;-84
2022/12/08 04:14:19;;;;;;;0.73;0.22;;;2.20;99.90;;;;;;4220790;28;20052;-84
2022/12/08 04:16:24;;;;;;;0.47;0.30;;;2.20;99.90;;;;;;4212568;28;20464;-84
2022/12/08 04:18:24;;;;;;;1.55;0.50;;;2.80;99.90;;;;;;4236001;28;20043;-84
2022/12/08 04:20:25;;;;;;;0.85;0.40;;;2.20;99.90;;;;;;4237056;28;20172;-84
2022/12/08 04:22:26;;;;;;;4.00;0.80;;;3.20;99.90;;;;;;4236178;28;20147;-84
2022/12/08 04:24:27;;;;;;;2.95;0.35;;;2.30;99.90;;;;;;4219865;28;20090;-84
2022/12/08 04:26:28;;;;;;;2.17;1.17;;;2.30;99.90;;;;;;4236860;28;20063;-84
2022/12/08 04:28:29;;;;;;;4.60;0.60;;;3.20;99.90;;;;;;4237167;27;20514;-84
2022/12/08 04:30:31;;;;;;;1.00;0.30;;;2.20;99.90;;;;;;4236955;28;20047;-84
2022/12/08 04:32:31;;;;;;;4.35;0.52;;;3.20;99.90;;;;;;4232627;28;20044;-84
2022/12/08 04:34:32;;;;;;;5.38;0.30;;;2.30;99.90;;;;;;4221766;28;20051;-86
2022/12/08 04:36:33;;;;;;;0.60;0.20;;;2.80;99.90;;;;;;4220573;28;20404;-84
2022/12/08 04:38:34;;;;;;;0.80;0.25;;;2.30;99.90;;;;;;4235448;28;20047;-84
2022/12/08 04:40:36;;;;;;;3.15;0.30;;;2.90;99.90;;;;;;4218787;28;20105;-84
2022/12/08 04:42:37;;;;;;;0.63;0.20;;;2.50;99.90;;;;;;4234697;28;20105;-84
2022/12/08 04:44:38;;;;;;;1.38;0.17;;;3.10;99.90;;;;;;4236143;28;20044;-84
2022/12/08 04:46:38;;;;;;;2.30;0.17;;;2.30;99.90;;;;;;4236030;28;20036;-84
2022/12/08 04:48:40;;;;;;;1.48;0.20;;;2.70;99.90;;;;;;4234920;28;20054;-84
2022/12/08 04:50:44;;;;;;;1.50;0.40;;;2.30;99.90;;;;;;4236316;27;20049;-84
2022/12/08 04:52:46;;;;;;;4.10;0.30;;;2.30;99.90;;;;;;4207462;28;20474;-84
2022/12/08 04:54:47;;;;;;;1.33;0.20;;;2.30;99.90;;;;;;4217857;28;20044;-84
2022/12/08 04:56:49;;;;;;;2.45;0.30;;;2.30;99.90;;;;;;4219290;28;20040;-84
2022/12/08 04:58:51;;;;;;;3.03;0.30;;;2.30;99.90;;;;;;4218493;28;20051;-84
2022/12/08 05:00:52;;;;;;;1.17;0.30;;;2.30;99.90;;;;;;4203351;28;20056;-84
2022/12/08 05:02:52;;;;;;;1.17;0.20;;;2.30;99.90;;;;;;4204143;28;20059;-84
2022/12/08 05:04:53;;;;;;;2.40;0.10;;;2.30;99.90;;;;;;4222633;28;20112;-84
2022/12/08 05:06:54;;;;;;;1.35;0.20;;;2.70;99.90;;;;;;4219629;28;20055;-85
2022/12/08 05:08:56;;;;;;;1.20;0.45;;;2.30;99.90;;;;;;4207823;28;20055;-84
2022/12/08 05:11:05;;;;;;;3.10;0.20;;;2.40;99.90;;;;;;4237042;28;20117;-84
2022/12/08 05:13:07;;;;;;;;;;;2.30;99.90;;;;;;4220481;28;20634;-84
2022/12/08 05:15:08;;;;;;;2.28;0.20;;;2.30;99.90;;;;;;4220169;28;19920;-85
2022/12/08 05:17:09;;;;;;;0.15;0.10;;;2.30;99.90;;;;;;4219643;28;20488;-85
2022/12/08 05:19:13;;;;;;;1.27;0.65;;;2.60;99.90;;;;;;4236295;28;20088;-85
2022/12/08 05:21:16;;;;;;;2.60;0.20;;;2.30;99.90;;;;;;4234261;28;20055;-84
2022/12/08 05:23:20;;;;;;;1.80;0.20;;;2.30;99.90;;;;;;4218215;28;20415;-84
2022/12/08 05:25:21;;;;;;;1.67;0.40;;;2.30;99.90;;;;;;4231694;28;20040;-84
2022/12/08 05:27:21;;;;;;;0.40;0.20;;;2.30;99.90;;;;;;4212437;28;20091;-84
2022/12/08 05:29:23;;;;;;;2.05;0.28;;;2.30;99.90;;;;;;4218951;28;20040;-85
2022/12/08 05:31:24;;;;;;;0.95;0.25;;;2.30;99.90;;;;;;4217204;28;20055;-84
2022/12/08 05:33:25;;;;;;;4.45;0.25;;;2.30;99.90;;;;;;4217834;28;20496;-85
2022/12/08 05:35:25;;;;;;;2.70;0.15;;;2.30;99.90;;;;;;4218645;28;20048;-85
2022/12/08 05:37:26;;;;;;;1.50;0.55;;;2.60;99.90;;;;;;4218615;28;20036;-85
2022/12/08 05:39:27;;;;;;;1.20;0.10;;;2.30;99.90;;;;;;4218454;28;20048;-84
2022/12/08 05:41:28;;;;;;;0.52;0.10;;;3.20;99.90;;;;;;4216696;28;20044;-85
2022/12/08 05:43:29;;;;;;;4.43;0.35;;;2.20;99.90;;;;;;4200005;28;20509;-84
2022/12/08 05:45:30;;;;;;;0.10;0.10;;;2.70;99.90;;;;;;4217901;28;20052;-84
2022/12/08 05:47:31;;;;;;;1.45;0.20;;;2.20;99.90;;;;;;4229697;28;20474;-84
2022/12/08 05:49:32;;;;;;;0.40;0.20;;;2.20;99.90;;;;;;4233763;28;20065;-84
2022/12/08 05:51:33;;;;;;;3.40;0.20;;;2.20;99.90;;;;;;4233745;28;20044;-84
2022/12/08 05:53:34;;;;;;;1.67;0.10;;;2.20;99.90;;;;;;4217305;28;20052;-85
2022/12/08 05:55:35;;;;;;;1.13;0.22;;;2.20;99.90;;;;;;4231450;28;20044;-85
2022/12/08 05:57:37;;;;;;;3.30;0.50;;;2.20;99.90;;;;;;4202531;28;20082;-83
2022/12/08 05:59:39;;;;;;;1.33;0.20;;;2.10;99.90;;;;;;4207106;28;20044;-83
2022/12/08 06:01:41;;;;;;;0.30;0.30;;;2.10;99.90;;;;;;4225507;28;20039;-84
2022/12/08 06:03:42;;;;;;;1.58;0.13;;;2.10;99.90;;;;;;4235865;28;20043;-84
2022/12/08 06:05:45;;;;;;;0.17;0.05;;;2.20;99.90;;;;;;4226931;28;20170;-83
2022/12/08 06:07:46;;;;;;;0.82;0.28;;;2.80;99.90;;;;;;4227288;28;20118;-85
2022/12/08 06:09:49;;;;;;;0.50;0.20;;;2.10;99.90;;;;;;4223938;28;20043;-84
2022/12/08 06:11:50;;;;;;;0.80;0.38;;;2.10;99.90;;;;;;4202981;28;20048;-84
2022/12/08 06:13:51;;;;;;;2.28;0.22;;;3.30;99.90;;;;;;4231138;28;20062;-84
2022/12/08 06:15:53;;;;;;;1.65;0.35;;;2.80;99.90;;;;;;4237418;28;20054;-84
2022/12/08 06:17:53;;;;;;;1.33;0.30;;;2.30;99.90;;;;;;4234323;28;20039;-84
2022/12/08 06:19:54;;;;;;;3.30;0.75;;;1.90;99.90;;;;;;4226780;28;20138;-83
2022/12/08 06:21:55;;;;;;;0.95;0.57;;;3.10;99.90;;;;;;4237316;28;20482;-84
2022/12/08 06:23:56;;;;;;;2.97;0.80;;;2.00;99.90;;;;;;4234604;28;20454;-83
2022/12/08 06:26:13;;;;;;;1.15;0.50;;;2.10;99.90;;;;;;4234322;28;20043;-83
2022/12/08 06:28:14;;;;;;;3.67;0.60;;;2.00;99.90;;;;;;4235667;28;20780;-84
2022/12/08 06:30:16;;;;;;;3.95;0.95;;;2.40;99.90;;;;;;4234497;28;20639;-83
2022/12/08 06:32:17;;;;;;;5.05;1.38;;;2.00;99.90;;;;;;4234285;28;20039;-84
2022/12/08 06:34:18;;;;;;;1.00;0.90;;;2.50;99.90;;;;;;4234174;28;20075;-84
2022/12/08 06:36:21;;;;;;;1.85;0.50;;;1.90;99.90;;;;;;4216136;28;20048;-84
2022/12/08 06:38:21;;;;;;;3.78;0.70;;;1.90;99.90;;;;;;4227008;28;20094;-84
2022/12/08 06:40:23;;;;;;;2.65;0.50;;;1.90;99.90;;;;;;4217711;28;20032;-84
2022/12/08 06:42:42;;;;;;;0.60;0.40;;;1.90;99.90;;;;;;4217572;28;20044;-84
2022/12/08 06:44:44;;;;;;;3.45;0.30;;;1.80;99.90;;;;;;4199783;28;20472;-83
2022/12/08 06:46:45;;;;;;;1.33;0.30;;;1.80;99.90;;;;;;4199432;28;20055;-84
2022/12/08 06:48:49;;;;;;;1.85;0.52;;;1.80;99.90;;;;;;4216380;28;20499;-84
2022/12/08 06:50:50;;;;;;;1.33;0.38;;;2.30;99.90;;;;;;4217300;28;20096;-84
2022/12/08 06:52:51;;;;;;;0.63;0.20;;;1.70;99.90;;;;;;4199674;28;20044;-84
2022/12/08 06:54:51;;;;;;;1.38;0.40;;;1.70;99.90;;;;;;4207735;28;20067;-84
2022/12/08 06:56:52;;;;;;;1.15;0.25;;;1.70;99.90;;;;;;4217011;28;20467;-84
2022/12/08 06:58:53;;;;;;;2.85;0.20;;;1.70;99.90;;;;;;4233330;28;20047;-84
2022/12/08 07:00:54;;;;;;;0.20;0.20;;;1.90;99.90;;;;;;4217116;28;20056;-84
2022/12/08 07:02:55;;;;;;;0.10;0.10;;;1.70;99.90;;;;;;4233708;28;20110;-84
2022/12/08 07:04:56;;;;;;;0.93;0.30;;;1.60;99.90;;;;;;4229881;28;20058;-84
2022/12/08 07:06:58;;;;;;;3.30;0.50;;;2.80;99.90;;;;;;4208721;28;20433;-86
2022/12/08 07:09:00;;;;;;;0.68;0.60;;;1.80;99.90;;;;;;4217384;28;20048;-84
2022/12/08 07:11:08;;;;;;;1.33;0.30;;;0.70;99.90;;;;;;4221259;28;20105;-84
2022/12/08 07:13:10;;;;;;;2.40;0.65;;;2.70;99.90;;;;;;4224481;28;20096;-84
2022/12/08 07:15:11;;;;;;;1.73;0.40;;;2.50;99.90;;;;;;4233217;28;20135;-84
2022/12/08 07:17:13;;;;;;;1.88;1.08;;;2.90;99.90;;;;;;4233355;28;20043;-84
2022/12/08 07:19:14;;;;;;;0.77;0.43;;;2.20;99.90;;;;;;4216114;28;20048;-84
2022/12/08 07:21:16;;;;;;;0.95;0.50;;;1.50;99.90;;;;;;4233358;28;20503;-83
2022/12/08 07:23:18;;;;;;;2.75;0.50;;;1.50;99.90;;;;;;4234145;28;20039;-84
2022/12/08 07:25:19;;;;;;;0.77;0.40;;;2.60;99.90;;;;;;4216871;28;20052;-84
2022/12/08 07:27:21;;;;;;;1.40;0.50;;;3.00;99.90;;;;;;4234759;28;20388;-83
2022/12/08 07:29:23;;;;;;;3.17;0.68;;;2.90;99.90;;;;;;4229400;28;20044;-83
2022/12/08 07:31:27;;;;;;;4.93;0.57;;;2.00;99.90;;;;;;4220133;28;20040;-83
2022/12/08 07:33:29;;;;;;;4.13;0.70;;;0.20;99.90;;;;;;4221029;28;20044;-83
2022/12/08 07:35:31;;;;;;;2.63;0.65;;;1.40;99.90;;;;;;4219806;28;20040;-83
2022/12/08 07:37:34;;;;;;;2.80;0.60;;;1.40;99.90;;;;;;4219129;28;20048;-83
2022/12/08 07:39:35;;;;;;;3.55;0.60;;;1.40;99.90;;;;;;4227084;28;20044;-83
2022/12/08 07:41:37;;;;;;;1.45;0.70;;;1.70;99.90;;;;;;4223236;28;20043;-84
2022/12/08 07:43:41;;;;;;;1.88;0.98;;;1.80;99.90;;;;;;4223493;28;20466;-84
2022/12/08 07:45:42;;;;;;;2.83;0.90;;;1.40;99.90;;;;;;4220147;28;20123;-82
2022/12/08 07:47:44;;;;;;;2.90;0.68;;;2.80;99.90;;;;;;4201920;28;20512;-83
2022/12/08 07:49:47;;;;;;;4.15;0.85;;;1.30;99.90;;;;;;4202133;28;20052;-83
2022/12/08 07:51:49;;;;;;;3.65;0.70;;;1.30;99.90;;;;;;4199819;28;20135;-83
2022/12/08 07:53:52;;;;;;;1.15;0.55;;;2.70;99.90;;;;;;4217190;28;20117;-84
2022/12/08 07:55:54;;;;;;;1.33;0.85;;;2.10;99.90;;;;;;4217540;28;20048;-85
2022/12/08 07:57:56;;;;;;;4.30;1.52;;;2.50;99.90;;;;;;4200377;28;20413;-86
2022/12/08 07:59:57;;;;;;;1.50;0.98;;;1.30;99.90;;;;;;4219733;28;20040;-84
2022/12/08 08:01:59;;;;;;;5.40;1.48;;;1.30;99.90;;;;;;4221216;28;20092;-87
2022/12/08 08:04:03;;;;;;;1.45;0.63;;;2.10;99.90;;;;;;4229636;28;20040;-87
2022/12/08 08:06:05;;;;;;;5.60;0.85;;;1.30;99.90;;;;;;4218183;28;20538;-86
2022/12/08 08:08:06;;;;;;;6.93;0.88;;;1.30;99.90;;;;;;4225478;28;20056;-86
2022/12/08 08:10:12;;;;;;;1.70;0.60;;;1.20;99.90;;;;;;4220616;28;20527;-85
2022/12/08 08:12:17;;;;;;;3.17;0.73;;;1.30;99.90;;;;;;4216075;28;20439;-84
2022/12/08 08:14:19;;;;;;;3.33;0.98;;;1.30;99.90;;;;;;4216902;28;20040;-85
2022/12/08 08:16:22;;;;;;;6.72;1.02;;;1.30;99.90;;;;;;4217712;28;20097;-86
2022/12/08 08:18:24;;;;;;;3.22;1.20;;;0.20;99.90;;;;;;4226862;28;20036;-86
2022/12/08 08:20:25;;;;;;;4.97;1.02;;;1.40;99.90;;;;;;4235140;28;20078;-86
2022/12/08 08:22:26;;;;;;;2.88;0.80;;;0.50;99.90;;;;;;4217827;28;20082;-86
2022/12/08 08:24:27;;;;;;;3.08;1.00;;;1.90;99.90;;;;;;4229625;28;20059;-86
2022/12/08 08:26:28;;;;;;;1.67;0.70;;;1.10;99.90;;;;;;4213872;28;20048;-87
2022/12/08 08:28:29;;;;;;;1.80;0.82;;;1.60;99.90;;;;;;4234199;28;20037;-87
2022/12/08 08:30:30;;;;;;;5.40;0.85;;;1.60;99.90;;;;;;4215671;28;20052;-87
2022/12/08 08:32:34;;;;;;;1.20;0.80;;;1.60;99.90;;;;;;4233284;28;20432;-87
2022/12/08 08:34:35;;;;;;;5.57;0.80;;;1.70;99.90;;;;;;4228868;28;20040;-86
2022/12/08 08:36:39;;;;;;;3.67;0.95;;;1.70;99.90;;;;;;4222429;28;20176;-86
2022/12/08 08:38:42;;;;;;;0.70;0.55;;;2.50;99.90;;;;;;4212170;28;20095;-86
2022/12/08 08:40:43;;;;;;;2.65;0.70;;;2.20;99.90;;;;;;4240724;28;20102;-87
2022/12/08 08:42:44;;;;;;;4.72;0.70;;;1.70;99.90;;;;;;4241479;28;20048;-87
2022/12/08 08:44:47;;;;;;;2.35;0.40;;;3.20;99.90;;;;;;4240798;28;20051;-86
2022/12/08 08:46:48;;;;;;;3.40;0.85;;;1.90;99.90;;;;;;4241238;28;20047;-87
2022/12/08 08:48:50;;;;;;;3.60;0.50;;;1.90;99.90;;;;;;4240402;28;20051;-87
2022/12/08 08:50:53;;;;;;;4.85;1.25;;;1.80;99.90;;;;;;4231844;28;20094;-86
2022/12/08 08:52:56;;;;;;;3.85;0.52;;;2.30;99.90;;;;;;4224373;28;20150;-85
2022/12/08 08:54:56;;;;;;;1.63;0.70;;;1.00;99.90;;;;;;4221290;28;20412;-85
2022/12/08 08:57:00;;;;;;;3.42;0.65;;;2.20;99.90;;;;;;4220113;28;20064;-86
2022/12/08 08:59:01;;;;;;;3.92;1.10;;;3.30;99.90;;;;;;4219014;28;20047;-86
2022/12/08 09:01:02;;;;;;;2.05;0.75;;;2.70;99.90;;;;;;4219571;28;20127;-86
2022/12/08 09:03:03;;;;;;;1.95;0.60;;;3.40;99.90;;;;;;4219241;28;20446;-86
2022/12/08 09:05:05;;;;;;;1.60;0.47;;;4.20;99.90;;;;;;4216909;28;20044;-86
2022/12/08 09:07:06;;;;;;;3.58;0.70;;;5.10;99.90;;;;;;4216541;28;20052;-86
2022/12/08 09:09:06;;;;;;;1.85;0.50;;;6.00;99.90;;;;;;4218308;28;20082;-86
2022/12/08 09:11:08;;;;;;;2.90;0.50;;;7.40;99.90;;;;;;4217536;28;20039;-87
2022/12/08 09:13:08;;;;;;;3.33;1.00;;;7.50;99.90;;;;;;4199327;28;20052;-87
2022/12/08 09:15:12;;;;;;;0.93;0.30;;;8.30;99.90;;;;;;4226927;28;20032;-87
2022/12/08 09:17:13;;;;;;;2.47;0.73;;;9.00;99.90;;;;;;4212750;28;20687;-87
2022/12/08 09:19:15;;;;;;;2.35;0.50;;;9.70;99.90;;;;;;4229130;28;20093;-87
2022/12/08 09:21:21;;;;;;;2.92;0.90;;;10.10;99.90;;;;;;4217032;28;20051;-87
2022/12/08 09:23:22;;;;;;;2.75;0.60;;;9.70;99.90;;;;;;4218818;28;20071;-87
2022/12/08 09:25:22;;;;;;;3.97;1.20;;;9.10;99.90;;;;;;4222472;28;20500;-87
2022/12/08 09:27:23;;;;;;;4.57;0.38;;;8.20;99.90;;;;;;4229852;28;20080;-87
2022/12/08 09:29:25;;;;;;;2.58;0.52;;;7.30;99.90;;;;;;4209969;28;20136;-87
2022/12/08 09:31:26;;;;;;;6.85;0.43;;;6.60;99.90;;;;;;4226634;28;20039;-88
2022/12/08 09:33:28;;;;;;;3.22;0.60;;;6.00;99.90;;;;;;4210462;28;20491;-87
2022/12/08 09:35:29;;;;;;;2.55;1.02;;;5.50;99.90;;;;;;4224289;27;20059;-86
2022/12/08 09:37:30;;;;;;;1.38;0.43;;;5.40;99.90;;;;;;4229042;28;20050;-86
2022/12/08 09:39:31;;;;;;;0.90;0.60;;;5.60;99.90;;;;;;4229333;28;20043;-85
2022/12/08 09:41:44;;;;;;;2.55;0.80;;;6.20;99.90;;;;;;4233906;28;20046;-86
2022/12/08 09:44:03;;;;;;;5.25;0.95;;;6.80;99.90;;;;;;4224103;28;20067;-87
2022/12/08 09:46:08;;;;;;;1.40;0.65;;;5.80;99.90;;;;;;4230213;28;20590;-87
2022/12/08 09:48:16;;;;;;;6.90;0.80;;;5.80;99.90;;;;;;4204234;28;20052;-87
2022/12/08 09:50:42;;;;;;;2.33;0.40;;;5.70;99.90;;;;;;4221071;28;20040;-87
2022/12/08 09:52:52;;;;;;;1.63;0.60;;;4.50;99.90;;;;;;4204072;28;20049;-86
2022/12/08 09:54:59;;;;;;;4.10;0.60;;;4.30;99.90;;;;;;4226776;28;20405;-86
2022/12/08 09:57:09;;;;;;;4.68;1.20;;;4.10;99.90;;;;;;4222226;28;20051;-87
2022/12/08 09:59:29;;;;;;;10.27;0.85;;;3.90;99.90;;;;;;4231155;28;20220;-87
2022/12/08 10:01:38;;;;;;;4.55;0.90;;;3.80;99.90;;;;;;4212252;28;20044;-87
2022/12/08 10:03:41;;;;;;;3.15;0.65;;;4.30;99.90;;;;;;4225286;28;20040;-86
2022/12/08 10:05:48;;;;;;;1.63;0.60;;;3.70;99.90;;;;;;4220760;28;20052;-87
2022/12/08 10:08:10;;;;;;;1.67;1.05;;;4.40;99.90;;;;;;4216683;28;20420;-86
2022/12/08 10:10:35;;;;;;;5.57;1.15;;;3.60;99.90;;;;;;4203359;28;20059;-86
2022/12/08 10:12:46;;;;;;;4.10;0.65;;;4.10;99.90;;;;;;4214848;28;20090;-86
2022/12/08 10:14:54;;;;;;;3.03;1.17;;;4.30;99.90;;;;;;4222051;28;20491;-87
2022/12/08 10:17:04;;;;;;;1.48;0.40;;;4.50;99.90;;;;;;4212047;28;20056;-87
2022/12/08 10:19:22;;;;;;;2.95;0.60;;;4.90;99.90;;;;;;4229339;28;20048;-87
2022/12/08 10:21:27;;;;;;;8.52;1.10;;;5.30;99.90;;;;;;4227086;28;20051;-86
2022/12/08 10:23:35;;;;;;;1.48;0.50;;;5.60;99.90;;;;;;4206876;28;20055;-86
2022/12/08 10:25:47;;;;;;;1.77;0.70;;;6.40;99.90;;;;;;4210496;28;20088;-86
2022/12/08 10:27:52;;;;;;;3.33;0.95;;;6.10;99.90;;;;;;4228925;28;20109;-86
2022/12/08 10:29:53;;;;;;;3.28;0.93;;;6.40;99.90;;;;;;4223887;28;20127;-87
2022/12/08 10:31:57;;;;;;;4.30;1.05;;;6.60;99.90;;;;;;4227427;28;20051;-87
2022/12/08 10:34:00;;;;;;;3.58;0.55;;;6.60;99.90;;;;;;4228812;28;20063;-87
2022/12/08 10:36:03;;;;;;;1.58;0.50;;;6.50;99.90;;;;;;4229006;28;20045;-87
2022/12/08 10:38:14;;;;;;;8.82;1.25;;;6.40;99.90;;;;;;4228964;27;20564;-87
2022/12/08 10:40:17;;;;;;;5.05;0.65;;;6.00;99.90;;;;;;4229821;27;20043;-88
2022/12/08 10:42:21;;;;;;;1.55;0.28;;;6.20;99.90;;;;;;4203473;28;20072;-88
2022/12/08 10:44:22;;;;;;;1.67;0.70;;;6.10;99.90;;;;;;4218242;28;20044;-86
2022/12/08 10:46:24;;;;;;;2.00;0.40;;;6.00;99.90;;;;;;4211414;28;20043;-87
2022/12/08 10:48:29;;;;;;;1.15;0.50;;;5.90;99.90;;;;;;4202994;28;20052;-86
2022/12/08 10:50:49;;;;;;;0.52;0.30;;;5.80;99.90;;;;;;4228638;28;20524;-85
2022/12/08 10:52:57;;;;;;;2.75;0.30;;;5.70;99.90;;;;;;4215305;28;20051;-84
2022/12/08 10:54:59;;;;;;;3.05;0.30;;;5.60;99.90;;;;;;4232423;28;20052;-85
2022/12/08 10:57:00;;;;;;;2.50;0.50;;;6.00;99.90;;;;;;4214995;28;20055;-85
2022/12/08 10:59:05;;;;;;;4.28;0.30;;;5.30;99.90;;;;;;4215991;28;20051;-84
2022/12/08 11:01:12;;;;;;;2.05;0.15;;;5.20;99.90;;;;;;4215784;28;20054;-84
2022/12/08 11:03:23;;;;;;;3.20;0.30;;;5.10;99.90;;;;;;4213851;28;20078;-84